Mc Kellar Sipes Regional Airport
KMKL : now visible

Airfield :











YOU CAN JOIN US ON...

 
LOGIN :

Register | Disclaimer

   EN    FR    IT 

 









Legend :    VFR   Marginal VFR   IFR   Intensive IFR   Very Intensive IFR
Visi :
Ceiling :
>= 8 km
>= 3000ft
5 to 8 km
1000 to 3000 ft
1500m to 5 km
500 to 1000 ft
800 to 1500m
200 to 500 ft
< 800m
< 200 ft
Symbols :   Thunderstorms  Fog  Heavy snow  Heavy precipitations  Wind > 20 kt






- Airport Elevation : 434 ft
- IATA code : MKL


KMKL - Mc Kellar Sipes Regional

CURRENT METAR :
  • 151253Z 12003KT 5SM BR CLR 02/01 A3006 RMK AO2 SLP180 T00220011

EXPIRED METARs :
  • 151153Z AUTO 05004KT 7SM CLR 03/02 A3006 RMK AO2 SLP181 T00280017 10061 20028 53007
  • 151053Z AUTO 07004KT 7SM CLR 04/02 A3005 RMK AO2 SLP176 T00390022

TAF KMKL
Valid from the 15 at 12:00 until the 16 at 12:00 UTC


151229Z 1512/1612 06005KT P6SM SCT015 OVC035
FM151500 09006KT 6SM BR BKN015 OVC035
FM152100 08006KT 5SM -RA BR OVC009
FM160300 18008KT 4SM -RA BR OVC005 WS020/21050KT
FM160800 24008KT 4SM -RA BR OVC005



MET'MAP, your aeronautical weather chart ! - Copyright ORBIFLY December 2007 - Disclaimer

ORBIFLY MET'MAP TEAM :

Programming & Development : Alexandra Zaïnal
Concept & original design : Baudouin d'Aumeries
Assistance for programming : Marc-Olivier Méhu
Technical & hardware support : Manuel Goepfert

Contact : metmap@orbifly.com




SOURCES & CREDITS :

   NOAA       Earth
Advisory